createdAt,value
2019-02-12T00:00:42.829Z,59.63
2019-02-12T00:03:48.609Z,60.43
2019-02-12T00:06:54.387Z,69.30
2019-02-12T00:10:00.344Z,72.47
2019-02-12T00:13:06.612Z,71.10
2019-02-12T00:16:12.366Z,67.93
2019-02-12T00:19:18.159Z,67.83
2019-02-12T00:22:24.029Z,68.00
2019-02-12T00:25:29.794Z,67.50
2019-02-12T00:28:35.636Z,71.57
2019-02-12T00:31:41.410Z,62.47
2019-02-12T00:34:48.074Z,67.37
2019-02-12T00:37:53.891Z,70.70
2019-02-12T00:40:59.696Z,68.37
2019-02-12T00:44:08.255Z,67.00
2019-02-12T00:47:14.027Z,68.83
2019-02-12T00:50:19.803Z,62.83
2019-02-12T00:53:25.592Z,60.00
2019-02-12T00:56:32.413Z,58.13
2019-02-12T00:59:38.245Z,59.43
2019-02-12T01:02:44.126Z,58.77
2019-02-12T01:05:49.895Z,60.03
2019-02-12T01:08:55.753Z,61.60
2019-02-12T01:12:01.640Z,57.97
2019-02-12T01:15:09.570Z,60.23
2019-02-12T01:18:15.560Z,58.73
2019-02-12T01:21:26.165Z,59.33
2019-02-12T01:24:28.942Z,57.23
2019-02-12T01:27:34.801Z,61.03
2019-02-12T01:30:40.663Z,58.43
2019-02-12T01:33:46.416Z,56.03
2019-02-12T01:36:52.193Z,56.03
2019-02-12T01:39:57.975Z,50.07
2019-02-12T01:43:03.776Z,54.47
2019-02-12T01:46:09.559Z,52.67
2019-02-12T01:49:15.339Z,50.10
2019-02-12T01:52:21.119Z,51.03
2019-02-12T01:55:26.901Z,53.57
2019-02-12T01:58:32.760Z,52.50
2019-02-12T02:01:38.552Z,48.43
2019-02-12T02:04:44.351Z,45.40
2019-02-12T02:07:50.137Z,49.83
2019-02-12T02:10:55.911Z,38.93
2019-02-12T02:14:01.680Z,39.50
2019-02-12T02:17:07.477Z,35.17
2019-02-12T02:20:14.163Z,36.37
2019-02-12T02:23:20.059Z,29.80
2019-02-12T02:26:25.856Z,28.43
2019-02-12T02:29:31.722Z,23.30
2019-02-12T02:32:37.577Z,18.70
2019-02-12T02:35:43.381Z,17.13
2019-02-12T02:38:49.166Z,14.33
2019-02-12T02:41:55.543Z,10.90
2019-02-12T02:45:01.350Z,8.53
2019-02-12T02:48:07.575Z,7.40
2019-02-12T02:51:13.369Z,5.63
2019-02-12T02:54:19.197Z,3.60
2019-02-12T02:57:24.955Z,3.23
2019-02-12T03:00:30.713Z,2.50
2019-02-12T03:03:36.618Z,1.63
2019-02-12T03:06:42.489Z,1.33
2019-02-12T03:09:49.361Z,1.20
2019-02-12T03:12:55.208Z,1.30
2019-02-12T03:16:01.037Z,1.17
2019-02-12T03:19:06.787Z,1.40
2019-02-12T03:22:12.601Z,1.30
2019-02-12T03:25:18.357Z,1.50
2019-02-12T03:28:24.117Z,1.50
2019-02-12T03:31:29.967Z,1.93
2019-02-12T03:34:35.745Z,1.30
2019-02-12T03:37:41.635Z,1.50
2019-02-12T03:40:47.389Z,1.20
2019-02-12T03:43:53.173Z,1.43
2019-02-12T03:46:58.978Z,1.43
2019-02-12T03:50:04.902Z,1.47
2019-02-12T03:53:10.777Z,1.40
2019-02-12T03:56:16.520Z,1.50
2019-02-12T03:59:22.377Z,1.47
2019-02-12T04:02:28.208Z,1.53
2019-02-12T04:05:34.214Z,1.40
2019-02-12T04:08:40.007Z,1.30
2019-02-12T04:11:45.894Z,1.73
2019-02-12T04:14:51.678Z,1.63
2019-02-12T04:17:57.434Z,1.83
2019-02-12T04:21:03.335Z,1.40
2019-02-12T04:24:09.111Z,1.50
2019-02-12T04:27:14.921Z,1.67
2019-02-12T04:30:20.707Z,1.70
2019-02-12T04:33:26.480Z,2.03
2019-02-12T04:36:32.304Z,1.90
2019-02-12T04:39:39.095Z,2.30
2019-02-12T04:42:44.894Z,1.70
2019-02-12T04:45:50.649Z,2.30
2019-02-12T04:49:04.871Z,2.70
2019-02-12T04:52:13.454Z,2.50
2019-02-12T04:55:19.354Z,2.30
2019-02-12T04:58:25.086Z,1.90
2019-02-12T05:01:30.837Z,1.80
2019-02-12T05:04:36.566Z,1.80
2019-02-12T05:07:42.397Z,2.10
2019-02-12T05:10:56.823Z,2.07
2019-02-12T05:14:02.576Z,2.50
2019-02-12T05:17:08.309Z,2.17
2019-02-12T05:20:14.554Z,2.30
2019-02-12T05:23:20.357Z,2.30
2019-02-12T05:26:26.099Z,2.20
2019-02-12T05:29:32.019Z,2.23
2019-02-12T05:32:37.806Z,2.20
2019-02-12T05:35:43.557Z,2.90
2019-02-12T05:38:49.421Z,2.90
2019-02-12T05:41:55.183Z,2.87
2019-02-12T05:45:00.953Z,3.00
2019-02-12T05:48:06.760Z,2.10
2019-02-12T05:51:12.641Z,2.10
2019-02-12T05:54:18.422Z,2.17
2019-02-12T05:57:24.183Z,2.83
2019-02-12T06:00:32.478Z,3.30
2019-02-12T06:03:38.259Z,2.33
2019-02-12T06:06:44.022Z,3.10
2019-02-12T06:09:49.844Z,2.60
2019-02-12T06:12:55.690Z,2.73
2019-02-12T06:16:01.442Z,3.50
2019-02-12T06:19:07.194Z,3.10
2019-02-12T06:22:12.954Z,3.33
2019-02-12T06:25:18.972Z,3.23
2019-02-12T06:28:24.732Z,4.23
2019-02-12T06:31:30.502Z,4.17
2019-02-12T06:34:36.237Z,3.97
2019-02-12T06:37:41.996Z,4.20
2019-02-12T06:40:47.789Z,5.03
2019-02-12T06:43:53.532Z,4.37
2019-02-12T06:46:59.299Z,3.70
2019-02-12T06:50:05.545Z,4.10
2019-02-12T06:53:12.745Z,3.60
2019-02-12T06:56:18.793Z,3.87
2019-02-12T06:59:24.553Z,3.37
2019-02-12T07:03:05.913Z,3.43
2019-02-12T07:06:39.953Z,2.40
2019-02-12T07:09:49.807Z,2.30
2019-02-12T07:13:39.553Z,3.83
2019-02-12T07:17:12.276Z,3.50
2019-02-12T07:20:45.604Z,3.30
2019-02-12T07:24:31.763Z,2.00
2019-02-12T07:28:20.356Z,3.83
2019-02-12T07:32:18.916Z,3.10
2019-02-12T07:35:51.835Z,2.70
2019-02-12T07:39:09.991Z,2.17
2019-02-12T07:42:55.526Z,2.00
2019-02-12T07:46:30.424Z,2.10
2019-02-12T07:50:10.878Z,2.17
2019-02-12T07:53:40.389Z,2.90
2019-02-12T07:57:31.431Z,3.10
2019-02-12T08:01:26.073Z,3.40
2019-02-12T08:05:29.348Z,2.80
2019-02-12T08:09:11.513Z,3.40
2019-02-12T08:12:43.824Z,2.27
2019-02-12T08:16:29.742Z,2.47
2019-02-12T08:20:12.880Z,3.10
2019-02-12T08:23:56.381Z,2.70
2019-02-12T08:27:27.906Z,3.10
2019-02-12T08:31:01.368Z,3.33
2019-02-12T08:34:45.062Z,2.40
2019-02-12T08:38:27.136Z,3.27
2019-02-12T08:42:01.838Z,2.70
2019-02-12T08:45:42.880Z,2.00
2019-02-12T08:49:18.202Z,2.40
2019-02-12T08:52:54.211Z,3.30
2019-02-12T08:56:34.846Z,2.50
2019-02-12T09:00:06.840Z,2.10
2019-02-12T09:04:09.576Z,2.53
2019-02-12T09:07:29.883Z,2.30
2019-02-12T09:11:08.847Z,2.70
2019-02-12T09:14:51.245Z,2.63
2019-02-12T09:18:39.911Z,2.90
2019-02-12T09:22:12.682Z,2.60
2019-02-12T09:25:55.793Z,1.60
2019-02-12T09:29:29.732Z,2.13
2019-02-12T09:33:00.496Z,1.67
2019-02-12T09:36:43.844Z,2.23
2019-02-12T09:40:35.352Z,1.77
2019-02-12T09:44:13.772Z,2.40
2019-02-12T09:47:55.875Z,1.97
2019-02-12T09:51:29.371Z,1.90
2019-02-12T09:55:31.400Z,2.50
2019-02-12T09:59:04.253Z,2.40
2019-02-12T10:02:54.980Z,3.10
2019-02-12T10:06:21.320Z,2.60
2019-02-12T10:09:48.989Z,2.30
2019-02-12T10:13:29.737Z,2.00
2019-02-12T10:17:19.026Z,2.23
2019-02-12T10:20:46.774Z,1.83
2019-02-12T10:24:33.444Z,2.07
2019-02-12T10:28:22.935Z,3.20
2019-02-12T10:31:42.687Z,2.80
2019-02-12T10:34:49.541Z,2.67
2019-02-12T10:37:55.316Z,2.60
2019-02-12T10:41:01.430Z,2.43
2019-02-12T10:44:07.383Z,1.87
2019-02-12T10:47:13.340Z,2.43
2019-02-12T10:50:19.191Z,1.90
2019-02-12T10:53:25.001Z,1.90
2019-02-12T10:56:30.923Z,1.70
2019-02-12T10:59:36.680Z,1.90
2019-02-12T11:02:42.592Z,1.30
2019-02-12T11:05:48.520Z,1.80
2019-02-12T11:08:54.316Z,1.90
2019-02-12T11:12:00.240Z,2.77
2019-02-12T11:15:07.778Z,1.80
2019-02-12T11:18:13.556Z,2.43
2019-02-12T11:21:19.326Z,2.37
2019-02-12T11:24:25.081Z,2.27
2019-02-12T11:27:30.860Z,2.00
2019-02-12T11:30:36.709Z,2.40
2019-02-12T11:33:42.489Z,2.40
2019-02-12T11:36:48.227Z,2.37
2019-02-12T11:39:53.989Z,2.47
2019-02-12T11:42:59.792Z,2.27
2019-02-12T11:46:05.670Z,2.90
2019-02-12T11:49:11.451Z,2.40
2019-02-12T11:52:17.201Z,1.47
2019-02-12T11:55:22.963Z,2.17
2019-02-12T11:58:28.777Z,2.40
2019-02-12T12:01:34.556Z,2.30
2019-02-12T12:04:40.350Z,2.90
2019-02-12T12:07:46.112Z,2.37
2019-02-12T12:10:51.864Z,2.97
2019-02-12T12:13:57.725Z,4.10
2019-02-12T12:17:03.499Z,2.40
2019-02-12T12:20:10.605Z,2.60
2019-02-12T12:23:16.368Z,3.00
2019-02-12T12:26:22.123Z,2.53
2019-02-12T12:29:27.867Z,3.10
2019-02-12T12:32:33.626Z,2.40
2019-02-12T12:35:39.430Z,2.60
2019-02-12T12:38:45.181Z,1.97
2019-02-12T12:41:50.979Z,2.53
2019-02-12T12:44:56.746Z,2.90
2019-02-12T12:48:02.685Z,3.77
2019-02-12T12:51:08.468Z,2.63
2019-02-12T12:54:14.270Z,2.77
2019-02-12T12:57:20.088Z,2.57
2019-02-12T13:00:25.953Z,2.70
2019-02-12T13:03:31.842Z,2.43
2019-02-12T13:06:37.666Z,2.80
2019-02-12T13:09:43.443Z,2.50
2019-02-12T13:12:49.230Z,1.87
2019-02-12T13:15:55.132Z,3.20
2019-02-12T13:19:00.899Z,3.30
2019-02-12T13:22:06.809Z,2.80
2019-02-12T13:25:12.779Z,3.50
2019-02-12T13:28:18.921Z,3.97
2019-02-12T13:31:24.690Z,3.27
2019-02-12T13:34:30.580Z,2.80
2019-02-12T13:37:36.442Z,3.33
2019-02-12T13:40:42.314Z,3.50
2019-02-12T13:43:48.211Z,3.77
2019-02-12T13:46:54.005Z,3.23
2019-02-12T13:49:59.782Z,3.60
2019-02-12T13:53:05.561Z,4.27
2019-02-12T13:56:11.384Z,3.17
2019-02-12T13:59:17.268Z,4.10
2019-02-12T14:02:23.081Z,4.10
2019-02-12T14:05:28.877Z,4.13
2019-02-12T14:08:34.682Z,4.73
2019-02-12T14:11:40.486Z,3.73
2019-02-12T14:14:46.297Z,3.03
2019-02-12T14:17:52.091Z,3.93
2019-02-12T14:20:58.016Z,3.57
2019-02-12T14:24:03.897Z,3.77
2019-02-12T14:27:09.922Z,4.10
2019-02-12T14:30:15.833Z,3.30
2019-02-12T14:33:21.657Z,2.90
2019-02-12T14:36:27.488Z,3.00
2019-02-12T14:39:33.354Z,3.20
2019-02-12T14:42:39.208Z,3.80
2019-02-12T14:45:45.003Z,3.93
2019-02-12T14:48:50.771Z,3.30
2019-02-12T14:51:56.628Z,4.07
2019-02-12T14:55:02.412Z,3.07
2019-02-12T14:58:08.392Z,3.50
2019-02-12T15:01:14.272Z,3.23
2019-02-12T15:04:20.154Z,3.30
2019-02-12T15:07:26.106Z,3.90
2019-02-12T15:10:31.965Z,4.50
2019-02-12T15:13:41.382Z,5.13
2019-02-12T15:16:47.167Z,4.70
2019-02-12T15:19:53.128Z,4.50
2019-02-12T15:22:58.922Z,3.70
2019-02-12T15:26:04.843Z,4.83
2019-02-12T15:29:10.637Z,3.73
2019-02-12T15:32:16.459Z,3.33
2019-02-12T15:35:22.348Z,3.27
2019-02-12T15:38:28.133Z,3.60
2019-02-12T15:41:34.054Z,3.47
2019-02-12T15:44:39.878Z,3.60
2019-02-12T15:47:45.795Z,9.20
2019-02-12T15:50:51.783Z,7.17
2019-02-12T15:53:57.621Z,7.57
2019-02-12T15:57:03.450Z,9.90
2019-02-12T16:00:15.673Z,17.40
2019-02-12T16:03:22.568Z,10.73
2019-02-12T16:06:28.364Z,4.73
2019-02-12T16:09:35.081Z,19.80
2019-02-12T16:12:41.081Z,8.93
2019-02-12T16:15:47.175Z,6.80
2019-02-12T16:18:53.071Z,5.53
2019-02-12T16:21:58.923Z,6.80
2019-02-12T16:25:04.990Z,5.77
2019-02-12T16:28:10.827Z,5.90
2019-02-12T16:31:18.567Z,6.50
2019-02-12T16:34:24.302Z,6.03
2019-02-12T16:37:30.129Z,5.87
2019-02-12T16:40:35.953Z,4.97
2019-02-12T16:43:41.747Z,5.33
2019-02-12T16:46:47.604Z,4.90
2019-02-12T16:49:53.364Z,4.80
2019-02-12T16:52:59.277Z,4.70
2019-02-12T16:56:08.371Z,4.53
2019-02-12T16:59:12.738Z,4.67
2019-02-12T17:02:18.664Z,5.17
2019-02-12T17:05:24.463Z,4.63
2019-02-12T17:08:30.258Z,6.23
2019-02-12T17:11:36.059Z,5.27
2019-02-12T17:14:41.976Z,5.63
2019-02-12T17:17:47.748Z,6.33
2019-02-12T17:20:53.553Z,5.13
2019-02-12T17:23:59.698Z,6.43
2019-02-12T17:27:05.613Z,5.17
2019-02-12T17:30:12.932Z,5.77
2019-02-12T17:33:19.713Z,5.83
2019-02-12T17:36:25.607Z,7.13
2019-02-12T17:39:31.465Z,6.90
2019-02-12T17:42:37.284Z,7.37
2019-02-12T17:45:43.246Z,5.70
2019-02-12T17:48:49.143Z,6.10
2019-02-12T17:51:56.371Z,6.63
2019-02-12T17:55:02.278Z,5.17
2019-02-12T17:58:08.023Z,6.00
2019-02-12T18:01:14.007Z,6.20
2019-02-12T18:04:22.073Z,6.73
2019-02-12T18:07:27.874Z,6.83
2019-02-12T18:10:33.880Z,6.63
2019-02-12T18:13:39.850Z,7.67
2019-02-12T18:16:45.697Z,8.20
2019-02-12T18:19:52.371Z,11.27
2019-02-12T18:23:00.134Z,7.83
2019-02-12T18:26:05.957Z,7.10
2019-02-12T18:29:11.809Z,7.10
2019-02-12T18:32:19.309Z,6.83
2019-02-12T18:35:25.127Z,7.47
2019-02-12T18:38:30.965Z,5.63
2019-02-12T18:41:38.552Z,7.03
2019-02-12T18:44:44.387Z,11.53
2019-02-12T18:47:52.797Z,10.10
2019-02-12T18:50:58.599Z,9.87
2019-02-12T18:54:04.490Z,8.20
2019-02-12T18:57:10.421Z,6.30
2019-02-12T19:00:18.811Z,6.93
2019-02-12T19:03:24.721Z,5.70
2019-02-12T19:06:31.607Z,6.43
2019-02-12T19:09:37.383Z,5.93
2019-02-12T19:12:43.160Z,5.50
2019-02-12T19:15:50.483Z,4.77
2019-02-12T19:18:56.428Z,4.67
2019-02-12T19:22:02.839Z,5.20
2019-02-12T19:25:11.167Z,6.17
2019-02-12T19:28:17.447Z,4.70
2019-02-12T19:31:24.481Z,4.80
2019-02-12T19:34:30.312Z,4.93
2019-02-12T19:37:36.339Z,5.40
2019-02-12T19:40:43.076Z,5.43
2019-02-12T19:43:48.954Z,5.60
2019-02-12T19:46:54.842Z,6.33
2019-02-12T19:50:00.647Z,7.10
2019-02-12T19:53:07.837Z,6.20
2019-02-12T19:56:13.691Z,7.80
2019-02-12T19:59:19.566Z,7.00
2019-02-12T20:02:25.394Z,7.50
2019-02-12T20:05:31.189Z,6.50
2019-02-12T20:08:38.412Z,7.03
2019-02-12T20:11:44.569Z,6.73
2019-02-12T20:14:50.365Z,7.00
2019-02-12T20:17:58.806Z,6.87
2019-02-12T20:21:06.277Z,12.20
2019-02-12T20:24:12.186Z,8.07
2019-02-12T20:27:18.021Z,7.07
2019-02-12T20:30:27.435Z,10.70
2019-02-12T20:33:33.323Z,9.63
2019-02-12T20:36:40.359Z,10.63
2019-02-12T20:39:48.852Z,6.87
2019-02-12T20:42:56.127Z,7.80
2019-02-12T20:46:01.985Z,15.60
2019-02-12T20:49:08.092Z,10.40
2019-02-12T20:52:13.990Z,8.77
2019-02-12T20:55:20.043Z,8.30
2019-02-12T20:58:25.970Z,8.47
2019-02-12T21:01:31.894Z,13.00
2019-02-12T21:04:40.240Z,9.17
2019-02-12T21:07:46.207Z,6.90
2019-02-12T21:10:52.050Z,12.17
2019-02-12T21:13:57.855Z,7.90
2019-02-12T21:17:03.665Z,8.60
2019-02-12T21:20:10.652Z,6.60
2019-02-12T21:23:16.610Z,8.27
2019-02-12T21:26:22.502Z,7.33
2019-02-12T21:29:28.257Z,8.93
2019-02-12T21:32:34.042Z,10.67
2019-02-12T21:35:39.781Z,7.13
2019-02-12T21:38:45.552Z,7.47
2019-02-12T21:41:51.370Z,6.57
2019-02-12T21:44:57.139Z,8.20
2019-02-12T21:48:02.981Z,7.60
2019-02-12T21:51:08.782Z,8.13
2019-02-12T21:54:14.725Z,8.57
2019-02-12T21:57:20.613Z,9.43
2019-02-12T22:00:26.507Z,8.03
2019-02-12T22:03:32.342Z,7.17
2019-02-12T22:06:38.120Z,7.00
2019-02-12T22:09:43.897Z,6.17
2019-02-12T22:12:49.758Z,8.13
2019-02-12T22:15:55.576Z,5.67
2019-02-12T22:19:01.335Z,5.10
2019-02-12T22:22:07.202Z,4.70
2019-02-12T22:25:13.127Z,6.17
2019-02-12T22:28:18.897Z,5.70
2019-02-12T22:31:24.719Z,10.27
2019-02-12T22:34:30.504Z,5.43
2019-02-12T22:37:36.330Z,8.83
2019-02-12T22:40:42.131Z,12.10
2019-02-12T22:43:47.924Z,4.87
2019-02-12T22:46:54.715Z,5.83
2019-02-12T22:50:00.583Z,5.00
2019-02-12T22:53:06.371Z,8.27
2019-02-12T22:56:12.179Z,6.67
2019-02-12T22:59:18.003Z,6.20
2019-02-12T23:02:23.961Z,11.47
2019-02-12T23:05:29.928Z,8.07
2019-02-12T23:08:35.823Z,7.87
2019-02-12T23:11:41.616Z,5.50
2019-02-12T23:14:47.486Z,6.53
2019-02-12T23:17:53.288Z,6.20
2019-02-12T23:20:59.096Z,5.30
2019-02-12T23:24:05.025Z,4.07
2019-02-12T23:27:10.897Z,4.80
2019-02-12T23:30:16.798Z,5.00
2019-02-12T23:33:22.569Z,5.23
2019-02-12T23:36:28.475Z,6.33
2019-02-12T23:39:34.283Z,5.23
2019-02-12T23:42:40.078Z,7.87
2019-02-12T23:45:45.903Z,8.17
2019-02-12T23:48:51.694Z,4.33
2019-02-12T23:51:57.484Z,4.60
2019-02-12T23:55:03.275Z,8.03
2019-02-12T23:58:09.137Z,6.20
